Time;durP1;ratioP1;P1;durP2;ratioP2;P2;SDS_P1;SDS_P2;PMS_P1;PMS_P2;Temp;Humidity;BMP_temperature;BMP_pressure;BME280_temperature;BME280_humidity;BME280_pressure;Samples;Min_cycle;Max_cycle;Signal;HPM_P1;HPM_P2
2023/08/25 00:00:50;;;;;;;9.77;6.30;;;21.60;99.90;;;;;;5036672;28;20661;-70
2023/08/25 00:03:17;;;;;;;7.63;5.60;;;;;;;;;;5039761;28;20503;-71
2023/08/25 00:05:44;;;;;;;6.80;5.97;;;21.60;99.90;;;;;;5041486;28;20492;-71
2023/08/25 00:08:11;;;;;;;12.80;6.13;;;21.60;99.90;;;;;;5037853;28;20610;-71
2023/08/25 00:10:39;;;;;;;8.30;6.30;;;21.60;99.90;;;;;;5037918;28;20580;-73
2023/08/25 00:13:06;;;;;;;7.80;6.00;;;21.60;99.90;;;;;;5041438;28;20476;-70
2023/08/25 00:15:33;;;;;;;7.53;5.07;;;21.60;99.90;;;;;;5049178;28;20479;-73
2023/08/25 00:18:01;;;;;;;6.70;6.07;;;21.80;99.90;;;;;;5041954;28;20885;-70
2023/08/25 00:20:31;;;;;;;8.63;5.30;;;21.80;99.90;;;;;;5045774;28;20479;-72
2023/08/25 00:22:58;;;;;;;9.70;5.57;;;21.80;99.90;;;;;;5056837;28;20491;-71
2023/08/25 00:25:24;;;;;;;6.90;5.50;;;21.80;99.90;;;;;;5054869;28;20567;-71
2023/08/25 00:27:53;;;;;;;10.57;5.60;;;21.90;99.90;;;;;;5053881;28;20484;-68
2023/08/25 00:30:20;;;;;;;10.53;5.80;;;21.90;99.90;;;;;;5031538;28;20499;-69
2023/08/25 00:32:47;;;;;;;8.63;6.60;;;21.70;99.90;;;;;;5050697;28;21212;-67
2023/08/25 00:35:13;;;;;;;7.40;6.03;;;21.80;99.90;;;;;;5042001;28;20475;-67
2023/08/25 00:37:40;;;;;;;6.10;4.93;;;21.60;99.90;;;;;;5045006;28;20482;-68
2023/08/25 00:40:10;;;;;;;7.70;6.00;;;21.60;99.90;;;;;;5041499;28;20501;-68
2023/08/25 00:42:36;;;;;;;8.77;5.80;;;21.60;99.90;;;;;;5039167;28;20475;-69
2023/08/25 00:45:06;;;;;;;14.77;6.27;;;21.60;99.90;;;;;;5037489;28;20490;-68
2023/08/25 00:47:33;;;;;;;8.10;5.37;;;21.60;99.90;;;;;;5040635;28;20497;-68
2023/08/25 00:50:00;;;;;;;9.60;5.67;;;21.60;99.90;;;;;;5041893;28;22849;-69
2023/08/25 00:52:27;;;;;;;9.10;6.40;;;21.60;99.90;;;;;;5040384;28;20489;-68
2023/08/25 00:54:56;;;;;;;11.60;5.43;;;21.50;99.90;;;;;;5038032;28;20475;-68
2023/08/25 00:57:24;;;;;;;8.57;5.70;;;21.70;99.90;;;;;;5040274;28;20487;-69
2023/08/25 00:59:51;;;;;;;6.73;4.57;;;21.70;99.90;;;;;;5040702;28;20479;-68
2023/08/25 01:02:19;;;;;;;5.07;4.67;;;21.70;99.90;;;;;;5104104;22;20479;-72
2023/08/25 01:04:46;;;;;;;12.20;5.27;;;21.70;99.90;;;;;;5008515;28;20465;-72
2023/08/25 01:07:14;;;;;;;8.40;5.10;;;21.70;99.90;;;;;;5007868;28;20477;-72
2023/08/25 01:09:41;;;;;;;8.67;5.87;;;21.70;99.90;;;;;;4995923;28;20497;-72
2023/08/25 01:12:17;;;;;;;7.50;5.50;;;21.60;99.90;;;;;;4990747;28;20469;-73
2023/08/25 01:14:54;;;;;;;10.67;5.10;;;21.60;99.90;;;;;;4978354;28;21322;-73
2023/08/25 01:17:43;;;;;;;13.83;4.87;;;21.60;99.90;;;;;;4987396;28;20481;-72
2023/08/25 01:20:13;;;;;;;15.77;7.20;;;21.60;99.90;;;;;;4998571;28;20477;-72
2023/08/25 01:22:52;;;;;;;9.63;5.63;;;21.60;99.90;;;;;;4983291;28;20478;-71
2023/08/25 01:25:25;;;;;;;13.47;6.40;;;21.60;99.90;;;;;;4998899;28;20477;-72
2023/08/25 01:27:53;;;;;;;8.30;5.47;;;21.60;99.90;;;;;;5012377;28;20477;-71
2023/08/25 01:30:21;;;;;;;19.50;5.73;;;21.60;99.90;;;;;;5012227;28;21246;-71
2023/08/25 01:32:49;;;;;;;7.93;6.00;;;21.60;99.90;;;;;;5011570;28;20484;-71
2023/08/25 01:35:17;;;;;;;7.00;5.50;;;21.60;99.90;;;;;;5011548;28;20468;-72
2023/08/25 01:37:51;;;;;;;8.20;4.67;;;21.60;99.90;;;;;;5013210;28;21165;-75
2023/08/25 01:40:22;;;;;;;11.20;5.37;;;21.70;99.90;;;;;;5010667;28;20839;-73
2023/08/25 01:42:52;;;;;;;5.67;5.13;;;21.80;99.90;;;;;;5004051;28;20520;-72
2023/08/25 01:45:22;;;;;;;6.77;4.93;;;22.00;99.90;;;;;;4992990;28;22108;-73
2023/08/25 01:47:50;;;;;;;10.00;5.63;;;22.00;99.90;;;;;;4990921;28;20478;-72
2023/08/25 01:50:19;;;;;;;9.30;5.60;;;22.10;99.90;;;;;;4991228;28;21111;-72
2023/08/25 01:52:47;;;;;;;9.80;5.17;;;22.10;99.90;;;;;;4993569;28;20488;-72
2023/08/25 01:55:14;;;;;;;8.40;5.57;;;22.10;99.90;;;;;;4991582;28;20589;-72
2023/08/25 01:57:40;;;;;;;8.57;5.00;;;22.20;99.90;;;;;;4993631;28;20488;-72
2023/08/25 02:00:10;;;;;;;8.30;4.90;;;22.10;99.90;;;;;;4991975;28;20482;-73
2023/08/25 02:05:06;;;;;;;8.50;5.00;;;22.10;99.90;;;;;;5003109;28;20558;-72
2023/08/25 02:07:33;;;;;;;6.07;5.13;;;22.10;99.90;;;;;;5009965;28;20482;-72
2023/08/25 02:10:00;;;;;;;13.37;6.30;;;22.10;99.90;;;;;;5008281;28;20473;-72
2023/08/25 02:12:27;;;;;;;8.10;6.07;;;22.10;99.90;;;;;;5010520;28;20584;-73
2023/08/25 02:14:54;;;;;;;6.50;5.50;;;22.10;99.90;;;;;;5006956;28;20543;-73
2023/08/25 02:17:22;;;;;;;7.37;5.60;;;22.10;99.90;;;;;;4992839;28;20485;-73
2023/08/25 02:19:49;;;;;;;7.47;5.50;;;21.90;99.90;;;;;;4994129;28;20566;-72
2023/08/25 02:22:16;;;;;;;9.17;5.43;;;22.00;99.90;;;;;;4996175;28;21078;-72
2023/08/25 02:24:43;;;;;;;7.43;5.73;;;22.00;99.90;;;;;;4999970;28;20489;-73
2023/08/25 02:27:10;;;;;;;5.13;4.63;;;21.90;99.90;;;;;;4979297;28;20475;-72
2023/08/25 02:29:37;;;;;;;10.17;6.70;;;21.90;99.90;;;;;;4983562;28;20478;-73
2023/08/25 02:32:04;;;;;;;6.30;5.70;;;21.90;99.90;;;;;;4977845;28;20468;-73
2023/08/25 02:34:33;;;;;;;8.10;5.47;;;21.90;99.90;;;;;;4981738;28;20930;-72
2023/08/25 02:37:00;;;;;;;8.60;6.53;;;21.90;99.90;;;;;;4976746;28;20482;-73
2023/08/25 02:39:27;;;;;;;6.50;5.63;;;21.90;99.90;;;;;;4977870;28;21039;-73
2023/08/25 02:41:54;;;;;;;5.43;4.93;;;21.90;99.90;;;;;;4977469;28;20489;-73
2023/08/25 02:44:20;;;;;;;6.03;5.37;;;21.90;99.90;;;;;;4980102;28;20486;-73
2023/08/25 02:46:47;;;;;;;7.27;5.37;;;21.80;99.90;;;;;;4976947;28;20479;-73
2023/08/25 02:49:15;;;;;;;5.30;4.80;;;21.90;99.90;;;;;;4978966;28;20898;-73
2023/08/25 02:51:43;;;;;;;8.63;5.40;;;21.90;99.90;;;;;;4983767;28;20886;-73
2023/08/25 02:54:10;;;;;;;13.57;5.00;;;21.90;99.90;;;;;;4987497;28;21066;-73
2023/08/25 02:56:37;;;;;;;7.67;4.90;;;21.70;99.90;;;;;;4987365;28;20475;-73
2023/08/25 02:59:04;;;;;;;6.03;5.53;;;21.70;99.90;;;;;;4986341;28;20485;-74
2023/08/25 03:01:31;;;;;;;10.40;5.97;;;21.70;99.90;;;;;;4992540;28;21197;-72
2023/08/25 03:03:57;;;;;;;6.37;5.70;;;21.70;99.90;;;;;;4998340;28;20474;-73
2023/08/25 03:06:24;;;;;;;11.47;6.37;;;21.80;99.90;;;;;;5000884;28;20695;-73
2023/08/25 03:08:52;;;;;;;9.10;6.03;;;21.80;99.90;;;;;;4998294;28;20550;-72
2023/08/25 03:11:19;;;;;;;4.97;4.43;;;21.80;99.90;;;;;;4999320;28;20470;-73
2023/08/25 03:13:46;;;;;;;13.73;4.70;;;21.80;99.90;;;;;;4998896;28;20883;-73
2023/08/25 03:16:13;;;;;;;9.10;5.20;;;21.80;99.90;;;;;;4979546;28;20554;-72
2023/08/25 03:18:40;;;;;;;6.40;5.70;;;21.80;99.90;;;;;;4982489;28;20499;-73
2023/08/25 03:21:07;;;;;;;8.20;5.87;;;21.90;99.90;;;;;;4977618;28;20501;-71
2023/08/25 03:23:35;;;;;;;17.97;5.13;;;21.80;99.90;;;;;;4980184;28;20573;-71
2023/08/25 03:26:04;;;;;;;8.70;5.50;;;21.80;99.90;;;;;;4982416;28;20490;-72
2023/08/25 03:28:31;;;;;;;5.47;4.93;;;21.80;99.90;;;;;;4978906;28;20698;-71
2023/08/25 03:30:58;;;;;;;10.53;4.80;;;21.70;99.90;;;;;;4977928;28;20493;-71
2023/08/25 03:33:25;;;;;;;8.60;5.40;;;21.70;99.90;;;;;;4977706;28;20686;-70
2023/08/25 03:35:52;;;;;;;18.80;6.47;;;21.70;99.90;;;;;;4979779;28;20894;-70
2023/08/25 03:38:19;;;;;;;11.57;5.40;;;21.70;99.90;;;;;;4981177;28;21363;-71
2023/08/25 03:40:46;;;;;;;6.80;5.77;;;21.70;99.90;;;;;;4979410;28;20578;-71
2023/08/25 03:43:14;;;;;;;11.00;6.03;;;21.80;99.90;;;;;;4978377;28;20474;-72
2023/08/25 03:45:41;;;;;;;12.27;6.13;;;21.80;99.90;;;;;;4975176;28;20467;-72
2023/08/25 03:48:08;;;;;;;7.50;5.93;;;21.80;99.90;;;;;;4972954;28;20493;-71
2023/08/25 03:50:35;;;;;;;12.63;7.13;;;21.80;99.90;;;;;;4978096;28;20921;-72
2023/08/25 03:53:02;;;;;;;8.77;5.30;;;21.70;99.90;;;;;;4977577;28;20479;-72
2023/08/25 03:55:29;;;;;;;7.57;6.50;;;21.40;99.90;;;;;;4983428;28;21034;-72
2023/08/25 03:57:55;;;;;;;6.73;5.00;;;21.40;99.90;;;;;;4980100;28;20851;-72
2023/08/25 04:00:24;;;;;;;6.03;5.43;;;21.20;99.90;;;;;;4977352;28;21099;-73
2023/08/25 04:02:50;;;;;;;7.37;6.00;;;21.30;99.90;;;;;;4988430;28;20476;-73
2023/08/25 04:05:17;;;;;;;9.07;6.50;;;21.30;99.90;;;;;;4999029;28;20535;-73
2023/08/25 06:42:46;;;;;;;11.63;7.43;;;18.80;99.90;;;;;;5046723;27;20571;-68
2023/08/25 06:45:13;;;;;;;10.97;5.00;;;18.90;99.90;;;;;;5058085;28;21020;-69
2023/08/25 06:47:41;;;;;;;6.57;5.53;;;19.40;99.90;;;;;;5067650;28;20528;-68
2023/08/25 06:50:08;;;;;;;7.60;6.17;;;19.80;99.90;;;;;;5041763;28;20875;-68
2023/08/25 06:52:36;;;;;;;6.90;6.23;;;20.20;99.90;;;;;;5051992;28;20974;-69
2023/08/25 06:55:04;;;;;;;7.67;5.63;;;20.50;99.90;;;;;;5073279;28;20478;-69
2023/08/25 06:57:33;;;;;;;9.73;5.20;;;20.80;99.90;;;;;;5058082;28;20479;-69
2023/08/25 07:00:01;;;;;;;6.30;4.13;;;20.90;99.90;;;;;;5068625;28;21055;-68
2023/08/25 07:02:28;;;;;;;8.27;5.37;;;21.10;99.90;;;;;;5061040;28;20956;-69
2023/08/25 07:04:55;;;;;;;8.23;4.93;;;21.10;99.90;;;;;;5074272;28;20471;-68
2023/08/25 07:07:26;;;;;;;6.17;5.43;;;21.10;99.90;;;;;;5053312;28;20587;-68
2023/08/25 07:09:53;;;;;;;6.87;5.37;;;21.20;99.90;;;;;;5049457;28;20470;-69
2023/08/25 07:12:20;;;;;;;7.73;5.10;;;21.20;99.90;;;;;;5063171;28;20474;-68
2023/08/25 07:14:48;;;;;;;8.57;7.67;;;21.40;99.90;;;;;;5068439;28;20466;-68
2023/08/25 07:17:16;;;;;;;8.20;5.53;;;21.50;99.90;;;;;;5056592;28;21131;-68
2023/08/25 07:19:43;;;;;;;7.40;5.20;;;21.50;99.90;;;;;;5054536;28;20497;-70
2023/08/25 07:22:10;;;;;;;10.40;4.37;;;21.50;99.90;;;;;;5062409;28;20682;-70
2023/08/25 07:24:37;;;;;;;14.30;4.50;;;21.60;99.90;;;;;;5058601;28;20479;-69
2023/08/25 07:27:04;;;;;;;6.70;4.53;;;21.60;99.90;;;;;;5065784;28;20475;-69
2023/08/25 07:29:31;;;;;;;5.20;4.70;;;21.70;99.90;;;;;;5073829;28;21280;-71
2023/08/25 07:31:58;;;;;;;4.27;3.87;;;21.70;99.90;;;;;;5058651;28;20566;-72
2023/08/25 07:34:26;;;;;;;5.80;5.23;;;21.80;99.90;;;;;;5058091;28;20584;-71
2023/08/25 07:36:54;;;;;;;5.23;4.60;;;21.80;99.90;;;;;;5060277;28;20466;-70
2023/08/25 07:39:21;;;;;;;9.10;4.70;;;21.90;99.90;;;;;;5066240;28;20480;-69
2023/08/25 07:41:48;;;;;;;5.20;4.10;;;22.10;99.90;;;;;;5070557;28;20522;-72
2023/08/25 07:44:15;;;;;;;5.80;4.07;;;22.10;99.90;;;;;;5057171;28;20569;-72
2023/08/25 07:46:42;;;;;;;4.37;3.97;;;22.30;99.90;;;;;;5059277;28;20483;-70
2023/08/25 07:49:10;;;;;;;5.70;3.83;;;22.40;99.90;;;;;;5070970;28;20577;-69
2023/08/25 07:51:38;;;;;;;6.20;3.80;;;22.60;99.90;;;;;;5060058;28;20523;-70
2023/08/25 07:54:06;;;;;;;6.17;3.67;;;22.80;99.90;;;;;;5057296;28;20441;-68
2023/08/25 07:56:33;;;;;;;5.70;3.10;;;22.80;99.90;;;;;;5056220;28;20458;-69
2023/08/25 07:59:03;;;;;;;4.00;3.67;;;22.80;99.90;;;;;;5058409;28;20558;-71
2023/08/25 08:01:30;;;;;;;4.70;3.63;;;22.80;99.90;;;;;;5039441;28;20535;-70
2023/08/25 08:03:56;;;;;;;3.83;3.43;;;22.90;99.90;;;;;;5053102;28;20464;-70
2023/08/25 08:06:23;;;;;;;4.80;3.17;;;22.90;99.90;;;;;;5050223;28;20470;-70
2023/08/25 08:08:52;;;;;;;4.07;3.37;;;22.90;99.90;;;;;;5039192;28;21018;-70
2023/08/25 08:11:19;;;;;;;3.63;3.20;;;22.70;99.90;;;;;;5041243;28;20478;-70
2023/08/25 08:13:47;;;;;;;3.50;3.20;;;22.70;99.90;;;;;;5038240;28;20488;-67
2023/08/25 08:16:14;;;;;;;3.43;2.97;;;22.70;99.90;;;;;;5051625;28;20517;-69
2023/08/25 08:18:41;;;;;;;4.00;3.20;;;22.80;99.90;;;;;;5057864;28;20483;-70
2023/08/25 08:21:09;;;;;;;3.67;2.93;;;22.70;99.90;;;;;;5045196;28;20497;-68
2023/08/25 08:23:36;;;;;;;6.77;2.70;;;22.70;99.90;;;;;;5049807;28;20483;-68
2023/08/25 08:26:04;;;;;;;4.97;2.80;;;22.70;99.90;;;;;;5038527;28;20521;-72
2023/08/25 08:28:31;;;;;;;10.67;3.03;;;22.90;99.90;;;;;;5052154;28;20545;-71
2023/08/25 08:31:03;;;;;;;4.90;3.30;;;22.90;99.90;;;;;;5043689;28;20554;-71
2023/08/25 08:33:30;;;;;;;4.43;2.70;;;22.90;99.90;;;;;;5046978;28;20482;-70
2023/08/25 08:35:57;;;;;;;4.93;3.67;;;22.90;99.90;;;;;;5056455;28;20503;-69
2023/08/25 08:38:24;;;;;;;3.03;2.73;;;22.80;99.90;;;;;;5037345;28;20468;-69
2023/08/25 08:40:51;;;;;;;3.20;2.30;;;22.90;99.90;;;;;;5037891;28;20457;-67
2023/08/25 08:43:20;;;;;;;6.60;3.47;;;22.80;99.90;;;;;;5035986;28;20915;-68
2023/08/25 08:45:51;;;;;;;5.90;2.90;;;22.90;99.90;;;;;;5047288;28;20483;-69
2023/08/25 08:48:21;;;;;;;3.23;2.90;;;23.00;99.90;;;;;;5036725;28;20873;-70
2023/08/25 08:50:48;;;;;;;5.90;3.10;;;23.00;99.90;;;;;;5042154;28;20569;-70
2023/08/25 08:53:16;;;;;;;4.37;3.60;;;23.00;99.90;;;;;;5057406;28;20478;-70
2023/08/25 08:55:46;;;;;;;6.10;3.73;;;23.00;99.90;;;;;;5037455;28;20475;-69
2023/08/25 08:58:15;;;;;;;4.60;3.17;;;23.00;99.90;;;;;;5041689;28;20991;-70
2023/08/25 09:00:44;;;;;;;4.30;3.40;;;23.00;99.90;;;;;;5044059;28;20543;-70
2023/08/25 09:03:14;;;;;;;5.30;3.60;;;23.20;99.90;;;;;;5053999;28;20471;-69
2023/08/25 09:05:43;;;;;;;3.97;3.40;;;23.40;99.90;;;;;;5057243;28;20460;-69
2023/08/25 09:08:13;;;;;;;3.67;3.37;;;23.60;99.90;;;;;;5042318;28;20550;-69
2023/08/25 09:10:40;;;;;;;14.03;3.97;;;23.70;99.90;;;;;;5055432;28;20503;-68
2023/08/25 09:13:07;;;;;;;6.17;3.53;;;23.70;99.90;;;;;;5040696;28;20510;-69
2023/08/25 09:15:34;;;;;;;4.87;4.03;;;23.70;99.90;;;;;;5038579;28;20474;-69
2023/08/25 09:18:03;;;;;;;5.80;3.87;;;23.70;99.90;;;;;;5051245;28;20812;-68
2023/08/25 09:20:33;;;;;;;4.53;3.77;;;23.70;99.90;;;;;;5045355;28;20844;-68
2023/08/25 09:23:00;;;;;;;6.80;4.40;;;23.70;99.90;;;;;;5038001;28;20434;-67
2023/08/25 09:25:27;;;;;;;6.47;3.77;;;23.70;99.90;;;;;;5040522;28;20483;-68
2023/08/25 09:27:57;;;;;;;6.73;3.37;;;23.80;99.90;;;;;;5042501;28;20474;-68
2023/08/25 09:30:34;;;;;;;4.93;4.10;;;23.80;99.90;;;;;;5056120;28;20479;-68
2023/08/25 09:33:04;;;;;;;7.40;3.90;;;23.70;99.90;;;;;;5014033;28;20857;-68
2023/08/25 09:35:32;;;;;;;5.63;3.90;;;23.70;99.90;;;;;;5018152;28;21389;-68
2023/08/25 09:37:59;;;;;;;5.70;3.60;;;23.80;99.90;;;;;;5016587;28;20455;-68
2023/08/25 09:40:27;;;;;;;4.33;3.90;;;23.80;99.90;;;;;;5017510;28;21048;-69
2023/08/25 09:43:04;;;;;;;5.93;4.10;;;23.80;99.90;;;;;;5015156;28;20512;-68
2023/08/25 09:45:33;;;;;;;7.40;5.40;;;23.80;99.90;;;;;;5005100;28;21000;-68
2023/08/25 09:48:09;;;;;;;6.53;3.50;;;23.70;99.90;;;;;;5015589;28;20472;-69
2023/08/25 09:50:40;;;;;;;5.30;4.83;;;23.80;99.90;;;;;;5018150;28;20476;-68
2023/08/25 09:53:07;;;;;;;5.17;3.80;;;23.80;99.90;;;;;;5016787;28;20485;-69
2023/08/25 09:55:36;;;;;;;11.53;4.30;;;23.90;99.90;;;;;;5015139;28;20555;-70
2023/08/25 09:58:05;;;;;;;6.03;4.57;;;23.70;99.90;;;;;;5023551;28;20481;-68
2023/08/25 10:00:35;;;;;;;7.93;4.57;;;23.80;99.90;;;;;;5006980;28;20484;-69
2023/08/25 10:03:04;;;;;;;5.40;4.20;;;23.80;99.90;;;;;;5015780;28;20481;-68
2023/08/25 10:05:33;;;;;;;9.30;4.17;;;23.90;99.90;;;;;;5015208;28;21008;-69
2023/08/25 10:08:00;;;;;;;5.13;4.27;;;24.00;99.90;;;;;;5017525;28;20451;-69
2023/08/25 10:10:31;;;;;;;6.23;3.67;;;24.00;99.90;;;;;;5017955;28;20487;-67
2023/08/25 10:12:58;;;;;;;9.43;4.77;;;24.10;99.90;;;;;;5016030;28;20534;-68
2023/08/25 10:15:28;;;;;;;5.10;4.50;;;24.20;99.90;;;;;;5015227;28;20542;-67
2023/08/25 10:18:00;;;;;;;5.07;4.57;;;24.30;99.90;;;;;;5015598;28;20470;-67
2023/08/25 10:20:27;;;;;;;6.47;4.40;;;24.30;99.90;;;;;;5016809;28;20460;-68
2023/08/25 10:22:58;;;;;;;3.47;3.17;;;24.30;99.90;;;;;;5016724;28;20495;-68
2023/08/25 10:25:29;;;;;;;6.57;4.10;;;24.40;99.90;;;;;;5016920;28;20520;-68
2023/08/25 10:27:57;;;;;;;4.57;4.13;;;24.50;99.90;;;;;;5015608;28;20477;-68
2023/08/25 10:30:25;;;;;;;4.70;4.30;;;24.50;99.90;;;;;;5012287;28;20567;-69
2023/08/25 10:32:56;;;;;;;5.80;4.20;;;24.60;99.90;;;;;;5015008;28;20488;-68
2023/08/25 10:35:43;;;;;;;4.93;4.43;;;24.60;99.90;;;;;;5016630;28;20489;-68
2023/08/25 10:38:37;;;;;;;9.80;4.80;;;24.70;99.90;;;;;;5014280;28;20496;-68
2023/08/25 10:41:18;;;;;;;5.17;3.60;;;24.80;99.90;;;;;;5015079;28;20659;-67
2023/08/25 10:43:52;;;;;;;6.63;4.30;;;24.80;99.90;;;;;;5015197;28;20880;-67
2023/08/25 10:46:20;;;;;;;4.33;3.93;;;24.80;99.90;;;;;;5015096;28;20487;-71
2023/08/25 10:48:49;;;;;;;4.60;3.67;;;24.80;99.90;;;;;;5014369;28;20903;-70
2023/08/25 10:51:20;;;;;;;4.40;4.00;;;24.70;99.90;;;;;;5013301;28;20469;-68
2023/08/25 10:53:52;;;;;;;7.63;4.07;;;24.80;99.90;;;;;;5016426;28;20483;-74
2023/08/25 10:56:24;;;;;;;4.77;4.33;;;24.70;99.90;;;;;;5015160;28;20472;-75
2023/08/25 10:59:03;;;;;;;4.23;3.63;;;24.70;99.90;;;;;;5013285;28;20497;-72
2023/08/25 11:01:55;;;;;;;4.90;3.30;;;24.70;99.90;;;;;;5026239;28;20998;-68
2023/08/25 11:04:24;;;;;;;5.63;4.03;;;24.70;99.90;;;;;;5016139;28;20465;-69
2023/08/25 11:06:52;;;;;;;5.33;3.80;;;24.60;99.90;;;;;;5016542;28;20506;-72
2023/08/25 11:09:35;;;;;;;5.93;4.50;;;24.60;99.90;;;;;;5016067;28;20473;-69
2023/08/25 11:12:05;;;;;;;4.20;3.70;;;24.50;99.90;;;;;;5012822;28;20914;-69
2023/08/25 11:14:35;;;;;;;4.73;4.30;;;24.60;99.90;;;;;;5014360;28;20484;-68
2023/08/25 11:17:03;;;;;;;5.17;4.10;;;24.50;99.90;;;;;;5019502;28;20495;-68
2023/08/25 11:19:32;;;;;;;3.90;3.60;;;24.40;99.90;;;;;;5017749;28;20539;-69
2023/08/25 11:22:00;;;;;;;3.70;3.13;;;24.40;99.90;;;;;;5008015;28;20631;-69
2023/08/25 11:24:27;;;;;;;5.47;4.17;;;24.40;99.90;;;;;;5027900;28;20484;-68
2023/08/25 11:26:55;;;;;;;3.97;3.57;;;24.50;99.90;;;;;;5014788;28;20562;-74
2023/08/25 11:29:22;;;;;;;5.23;4.50;;;24.40;99.90;;;;;;5017606;28;20937;-68
2023/08/25 11:31:49;;;;;;;8.97;3.80;;;24.40;99.90;;;;;;5019776;28;20487;-67
2023/08/25 11:34:16;;;;;;;6.23;4.73;;;24.60;99.90;;;;;;5019785;28;20473;-67
2023/08/25 11:36:43;;;;;;;5.10;4.67;;;24.60;99.90;;;;;;5020612;28;20572;-68
2023/08/25 11:39:19;;;;;;;6.27;4.17;;;24.70;99.90;;;;;;5020577;28;20966;-66
2023/08/25 11:41:46;;;;;;;7.87;4.53;;;24.70;99.90;;;;;;5019419;28;20820;-68
2023/08/25 11:44:16;;;;;;;5.80;5.10;;;24.70;99.90;;;;;;5018488;28;20495;-67
2023/08/25 11:46:43;;;;;;;5.43;4.93;;;24.80;99.90;;;;;;5020950;28;20550;-69
2023/08/25 11:49:10;;;;;;;4.43;4.03;;;24.70;99.90;;;;;;5017964;28;20529;-67
2023/08/25 11:51:37;;;;;;;5.43;4.40;;;24.70;99.90;;;;;;5027863;28;20538;-67
2023/08/25 11:54:05;;;;;;;7.20;4.73;;;24.60;99.90;;;;;;5019564;28;20447;-68
2023/08/25 11:56:33;;;;;;;8.10;4.70;;;24.70;99.90;;;;;;5018586;28;20455;-67
2023/08/25 11:59:00;;;;;;;5.10;4.40;;;24.70;99.90;;;;;;5017714;28;20490;-68
2023/08/25 12:01:34;;;;;;;5.63;4.17;;;24.80;99.90;;;;;;5016990;28;21014;-67
2023/08/25 12:04:19;;;;;;;5.33;4.83;;;24.80;99.90;;;;;;5018067;28;20566;-68
2023/08/25 12:06:46;;;;;;;7.00;4.90;;;24.90;99.90;;;;;;5020131;28;20439;-68
2023/08/25 12:09:22;;;;;;;4.77;4.20;;;25.00;99.90;;;;;;5019062;28;20573;-67
2023/08/25 12:11:49;;;;;;;4.80;4.33;;;25.30;99.90;;;;;;5020215;28;20529;-68
2023/08/25 12:14:27;;;;;;;6.40;5.80;;;25.70;99.90;;;;;;5017674;28;20745;-71
2023/08/25 12:16:56;;;;;;;6.17;3.90;;;25.90;99.90;;;;;;5019221;28;20994;-67
2023/08/25 12:19:25;;;;;;;4.43;3.20;;;26.00;99.90;;;;;;5014648;28;21052;-66
2023/08/25 12:21:53;;;;;;;11.13;5.43;;;26.20;99.90;;;;;;5019429;28;20541;-68
2023/08/25 12:24:20;;;;;;;9.33;4.00;;;26.20;99.90;;;;;;5003925;28;20517;-68
2023/08/25 12:26:48;;;;;;;7.90;4.27;;;26.30;99.90;;;;;;5018634;28;20477;-67
2023/08/25 12:29:15;;;;;;;5.30;4.80;;;26.40;99.90;;;;;;5016634;28;20502;-68
2023/08/25 12:31:42;;;;;;;5.40;4.90;;;26.50;99.90;;;;;;5018161;28;20495;-68
2023/08/25 12:34:10;;;;;;;8.60;5.77;;;26.70;99.90;;;;;;5017626;28;20479;-69
2023/08/25 12:36:37;;;;;;;10.60;5.60;;;26.80;99.90;;;;;;5019072;28;20473;-68
2023/08/25 12:39:05;;;;;;;7.47;5.20;;;26.80;99.90;;;;;;5016464;28;20913;-69
2023/08/25 12:41:32;;;;;;;10.63;5.60;;;26.90;99.90;;;;;;5017822;28;20508;-69
2023/08/25 12:44:00;;;;;;;9.10;5.63;;;26.90;99.90;;;;;;5015240;28;20479;-69
2023/08/25 12:46:27;;;;;;;9.30;5.77;;;26.90;99.90;;;;;;5017668;28;20485;-70
2023/08/25 12:48:53;;;;;;;6.37;4.97;;;26.90;99.90;;;;;;5016557;28;20467;-72
2023/08/25 12:51:22;;;;;;;5.93;5.40;;;27.10;99.90;;;;;;5017536;28;20480;-69
2023/08/25 12:53:49;;;;;;;5.87;4.97;;;26.90;99.90;;;;;;5027989;28;20488;-73
2023/08/25 12:56:17;;;;;;;8.80;5.13;;;26.90;99.90;;;;;;5041941;28;20499;-74
2023/08/25 13:06:31;;;;;;;8.00;5.57;;;27.40;99.90;;;;;;4985000;23;20480;-71
2023/08/25 13:08:58;;;;;;;6.87;6.13;;;27.50;99.90;;;;;;4991185;28;20993;-70
2023/08/25 13:11:25;;;;;;;8.97;6.40;;;27.60;99.90;;;;;;4989244;28;20464;-74
2023/08/25 13:13:51;;;;;;;9.67;5.63;;;27.70;99.90;;;;;;4976010;28;20697;-68
2023/08/25 13:16:18;;;;;;;7.37;6.50;;;27.80;99.90;;;;;;4978811;28;20452;-69
2023/08/25 13:18:45;;;;;;;11.80;6.90;;;27.70;99.90;;;;;;4975941;28;20477;-67
2023/08/25 13:21:12;;;;;;;14.03;6.93;;;27.90;99.90;;;;;;4982688;28;20460;-67
2023/08/25 13:23:40;;;;;;;9.40;7.20;;;27.90;99.90;;;;;;4977615;28;20448;-68
2023/08/25 13:26:06;;;;;;;11.93;6.63;;;27.90;99.90;;;;;;4974203;28;20961;-68
2023/08/25 13:28:33;;;;;;;7.67;6.13;;;27.70;99.90;;;;;;4977973;28;20489;-68
2023/08/25 13:31:00;;;;;;;9.77;6.43;;;28.00;99.90;;;;;;4977126;28;20460;-68
2023/08/25 13:33:27;;;;;;;9.23;5.87;;;28.00;99.90;;;;;;4975297;28;20472;-68
2023/08/25 13:35:55;;;;;;;9.53;6.73;;;28.00;99.90;;;;;;4974752;28;20467;-67
2023/08/25 13:38:22;;;;;;;7.90;6.50;;;28.10;99.90;;;;;;4978634;28;21216;-69
2023/08/25 13:40:50;;;;;;;6.00;5.27;;;28.10;99.90;;;;;;4978255;28;20467;-77
2023/08/25 13:43:17;;;;;;;8.47;7.20;;;28.10;99.90;;;;;;4978745;28;20480;-69
2023/08/25 13:45:45;;;;;;;13.53;6.80;;;28.10;99.90;;;;;;4977532;28;20893;-72
2023/08/25 13:48:12;;;;;;;7.50;6.50;;;28.30;99.90;;;;;;4966897;28;20451;-69
2023/08/25 13:50:40;;;;;;;13.47;6.50;;;28.40;99.90;;;;;;4978022;28;20482;-69
2023/08/25 13:53:07;;;;;;;7.53;6.83;;;28.30;99.90;;;;;;4977463;28;20452;-68
2023/08/25 13:55:33;;;;;;;6.83;6.27;;;28.30;99.90;;;;;;4978887;28;20468;-69
2023/08/25 13:58:02;;;;;;;6.73;6.10;;;28.30;99.90;;;;;;4994879;28;20473;-75
2023/08/25 14:03:05;;;;;;;8.87;7.27;;;28.30;99.90;;;;;;5459910;23;21119;-73
2023/08/25 14:05:32;;;;;;;8.07;6.53;;;28.30;99.90;;;;;;4985580;28;20469;-67
2023/08/25 14:07:59;;;;;;;10.00;6.43;;;28.00;99.90;;;;;;5001443;28;21161;-70
2023/08/25 14:10:27;;;;;;;6.50;5.90;;;27.80;99.90;;;;;;4990451;28;21998;-70
2023/08/25 14:12:54;;;;;;;11.63;7.00;;;27.70;99.90;;;;;;4998125;28;20469;-68
2023/08/25 14:15:22;;;;;;;7.23;6.53;;;27.70;99.90;;;;;;4996706;28;20566;-71
2023/08/25 14:17:49;;;;;;;9.40;8.30;;;27.70;99.90;;;;;;4996195;28;20540;-69
2023/08/25 14:20:16;;;;;;;8.30;6.83;;;27.80;99.90;;;;;;4991158;28;20479;-66
2023/08/25 14:22:43;;;;;;;7.43;6.67;;;28.00;99.90;;;;;;4999385;28;20571;-65
2023/08/25 14:25:11;;;;;;;7.60;5.93;;;28.00;99.90;;;;;;4993843;28;20560;-68
2023/08/25 14:27:38;;;;;;;8.37;6.70;;;28.20;99.90;;;;;;5000257;28;20534;-67
2023/08/25 14:30:07;;;;;;;7.03;6.33;;;28.20;99.90;;;;;;4992719;28;20474;-71
2023/08/25 14:32:35;;;;;;;10.80;6.83;;;28.20;99.90;;;;;;4999778;28;20464;-71
2023/08/25 14:35:03;;;;;;;8.03;6.33;;;28.10;99.90;;;;;;4997150;28;20463;-68
2023/08/25 14:37:31;;;;;;;9.13;6.70;;;27.90;99.90;;;;;;5004159;28;20512;-67
2023/08/25 14:39:57;;;;;;;7.90;5.90;;;27.90;99.90;;;;;;4997050;28;20476;-67
2023/08/25 14:42:24;;;;;;;8.10;6.50;;;27.90;99.90;;;;;;4997230;28;20488;-66
2023/08/25 14:44:53;;;;;;;7.53;5.87;;;27.70;99.90;;;;;;4996098;28;20605;-76
2023/08/25 14:47:20;;;;;;;7.83;6.90;;;27.60;99.90;;;;;;4997149;28;20954;-72
2023/08/25 14:49:49;;;;;;;9.23;7.00;;;27.60;99.90;;;;;;4996398;28;20460;-67
2023/08/25 14:52:17;;;;;;;8.17;6.37;;;27.50;99.90;;;;;;4988524;28;20492;-69
2023/08/25 14:54:45;;;;;;;15.60;7.00;;;27.50;99.90;;;;;;5010526;28;20534;-71
2023/08/25 14:57:12;;;;;;;12.57;6.50;;;27.70;99.90;;;;;;4993623;28;21137;-70
2023/08/25 14:59:39;;;;;;;10.73;6.77;;;27.80;99.90;;;;;;4998442;28;20572;-67
2023/08/25 15:02:06;;;;;;;7.43;6.73;;;27.90;99.90;;;;;;4999718;28;20483;-66
2023/08/25 15:04:33;;;;;;;8.73;6.13;;;28.00;99.90;;;;;;4996633;28;20672;-67
2023/08/25 15:07:01;;;;;;;11.83;7.03;;;28.00;99.90;;;;;;4994875;28;20563;-67
2023/08/25 15:09:28;;;;;;;8.00;7.20;;;28.10;99.90;;;;;;5016504;28;20541;-68
2023/08/25 15:11:55;;;;;;;7.53;6.83;;;28.00;99.90;;;;;;5003888;28;20454;-66
2023/08/25 15:14:22;;;;;;;6.83;5.70;;;28.00;99.90;;;;;;5001397;28;20480;-70
2023/08/25 15:16:49;;;;;;;8.00;5.93;;;28.10;99.90;;;;;;4997767;28;20460;-67
2023/08/25 15:19:16;;;;;;;13.73;6.90;;;28.10;99.90;;;;;;5003172;28;20870;-67
2023/08/25 15:21:43;;;;;;;9.30;6.17;;;28.00;99.90;;;;;;4999492;28;20460;-69
2023/08/25 15:24:11;;;;;;;7.70;6.70;;;28.10;99.90;;;;;;5000591;28;21112;-69
2023/08/25 15:26:38;;;;;;;6.97;6.27;;;28.20;99.90;;;;;;5004334;28;20896;-67
2023/08/25 15:29:05;;;;;;;8.07;6.10;;;28.30;99.90;;;;;;4999829;28;21005;-69
2023/08/25 15:31:32;;;;;;;11.57;6.70;;;28.20;99.90;;;;;;4996711;28;20477;-72
2023/08/25 15:33:58;;;;;;;7.60;6.30;;;28.30;99.90;;;;;;5000943;28;20564;-71
2023/08/25 15:36:25;;;;;;;12.93;6.63;;;28.20;99.90;;;;;;5005930;28;20466;-68
2023/08/25 15:38:53;;;;;;;9.33;6.20;;;28.20;99.90;;;;;;4995377;28;20482;-67